Time;durP1;ratioP1;P1;durP2;ratioP2;P2;SDS_P1;SDS_P2;PMS_P1;PMS_P2;Temp;Humidity;BMP_temperature;BMP_pressure;BME280_temperature;BME280_humidity;BME280_pressure;Samples;Min_cycle;Max_cycle;Signal;HPM_P1;HPM_P2
2023/10/27 00:01:00;;;;;;;4.18;2.92;;;19.40;79.20;;;;;;4974791;28;20148;-29
2023/10/27 00:03:27;;;;;;;4.63;2.97;;;;;;;;;;4975016;28;20051;-31
2023/10/27 00:05:54;;;;;;;4.10;3.17;;;;;;;;;;4974844;28;20086;-31
2023/10/27 00:08:22;;;;;;;3.45;2.95;;;;;;;;;;4976964;28;20621;-32
2023/10/27 00:10:50;;;;;;;3.63;2.90;;;19.30;62.10;;;;;;4994233;28;20078;-31
2023/10/27 00:13:16;;;;;;;3.80;3.05;;;19.20;81.60;;;;;;4994261;28;20082;-31
2023/10/27 00:15:44;;;;;;;4.30;2.80;;;;;;;;;;4993860;28;20108;-31
2023/10/27 00:18:11;;;;;;;5.70;3.22;;;;;;;;;;4994247;28;20136;-31
2023/10/27 00:20:37;;;;;;;4.88;3.17;;;19.70;80.90;;;;;;4994325;28;20497;-31
2023/10/27 00:23:04;;;;;;;3.40;2.60;;;19.70;81.10;;;;;;4994782;28;20143;-31
2023/10/27 00:25:31;;;;;;;3.88;3.38;;;;;;;;;;4994840;28;20421;-30
2023/10/27 00:27:59;;;;;;;3.38;2.75;;;18.20;80.30;;;;;;4994958;28;20104;-31
2023/10/27 00:30:26;;;;;;;3.63;3.00;;;18.80;81.40;;;;;;4994688;28;20046;-31
2023/10/27 00:32:53;;;;;;;4.55;2.75;;;19.60;81.40;;;;;;4994780;28;20076;-31
2023/10/27 00:35:20;;;;;;;3.67;3.05;;;19.70;69.90;;;;;;4994820;28;20081;-30
2023/10/27 00:37:46;;;;;;;3.20;2.75;;;20.10;70.00;;;;;;4978708;28;20113;-31
2023/10/27 00:40:14;;;;;;;4.07;3.30;;;18.70;81.40;;;;;;4975257;28;20126;-31
2023/10/27 00:42:41;;;;;;;3.97;3.08;;;19.30;81.30;;;;;;4975255;28;20416;-31
2023/10/27 00:45:10;;;;;;;3.90;3.00;;;20.10;70.20;;;;;;4974934;28;20051;-31
2023/10/27 00:47:36;;;;;;;3.75;2.92;;;18.40;81.30;;;;;;4975080;28;20042;-31
2023/10/27 00:50:04;;;;;;;3.13;2.83;;;18.90;75.80;;;;;;4974878;28;20051;-31
2023/10/27 00:52:30;;;;;;;3.88;3.13;;;19.20;78.80;;;;;;4975254;28;20117;-31
2023/10/27 00:54:57;;;;;;;3.80;3.10;;;19.10;81.40;;;;;;4974750;28;20113;-31
2023/10/27 00:57:24;;;;;;;4.35;2.97;;;;;;;;;;4982262;28;20074;-30
2023/10/27 00:59:51;;;;;;;4.95;3.00;;;19.30;81.80;;;;;;4994052;28;20048;-31
2023/10/27 01:02:21;;;;;;;3.88;3.10;;;19.10;62.20;;;;;;4994298;28;20046;-29
2023/10/27 01:04:47;;;;;;;4.07;3.10;;;19.30;81.40;;;;;;4994163;28;20499;-31
2023/10/27 01:07:14;;;;;;;3.60;3.00;;;;;;;;;;4989895;28;20043;-29
2023/10/27 01:09:41;;;;;;;3.47;3.13;;;19.20;81.80;;;;;;4987153;28;20137;-31
2023/10/27 01:12:08;;;;;;;3.53;3.22;;;19.50;81.20;;;;;;4994004;28;20128;-31
2023/10/27 01:14:35;;;;;;;3.40;2.90;;;19.10;77.50;;;;;;4993788;28;20112;-31
2023/10/27 01:17:02;;;;;;;3.60;3.05;;;19.10;81.40;;;;;;4994079;28;20536;-31
2023/10/27 01:19:30;;;;;;;3.35;3.05;;;19.10;62.30;;;;;;4994216;28;20104;-30
2023/10/27 01:21:57;;;;;;;3.75;3.00;;;;;;;;;;4993722;28;20058;-30
2023/10/27 01:24:25;;;;;;;3.70;3.22;;;19.20;81.00;;;;;;4993616;28;20105;-30
2023/10/27 01:26:52;;;;;;;3.78;3.17;;;19.40;81.20;;;;;;4993129;28;20090;-30
2023/10/27 01:29:20;;;;;;;4.30;3.00;;;19.20;82.00;;;;;;4993703;28;20085;-30
2023/10/27 01:31:47;;;;;;;4.25;3.70;;;19.20;78.30;;;;;;4993621;28;20050;-30
2023/10/27 01:34:14;;;;;;;4.85;3.13;;;18.20;74.80;;;;;;4993741;28;20073;-30
2023/10/27 01:36:41;;;;;;;3.67;3.10;;;;;;;;;;4986421;28;20105;-29
2023/10/27 01:39:08;;;;;;;3.25;2.80;;;18.80;80.90;;;;;;4974156;28;20074;-30
2023/10/27 01:41:36;;;;;;;3.15;2.85;;;19.20;81.20;;;;;;4973719;28;20617;-30
2023/10/27 01:44:03;;;;;;;3.35;2.92;;;19.60;81.60;;;;;;4974296;28;20456;-30
2023/10/27 01:46:30;;;;;;;3.38;2.90;;;19.00;73.90;;;;;;4974124;28;20042;-30
2023/10/27 01:48:57;;;;;;;3.95;3.10;;;18.80;81.10;;;;;;4974749;28;20096;-30
2023/10/27 01:51:24;;;;;;;3.30;3.00;;;;;;;;;;4974704;28;20102;-29
2023/10/27 01:53:51;;;;;;;3.78;2.90;;;18.50;80.90;;;;;;4972636;28;20046;-30
2023/10/27 01:56:17;;;;;;;3.17;2.83;;;18.90;82.00;;;;;;4973922;28;20204;-30
2023/10/27 01:58:45;;;;;;;3.47;3.17;;;17.70;72.40;;;;;;4974065;28;20105;-30
2023/10/27 02:01:14;;;;;;;5.13;2.97;;;;;;;;;;4973599;28;20078;-30
2023/10/27 02:03:41;;;;;;;3.35;3.00;;;18.60;81.00;;;;;;4972318;28;20435;-30
2023/10/27 02:06:07;;;;;;;3.50;2.63;;;18.90;81.30;;;;;;4973735;28;20109;-30
2023/10/27 02:08:35;;;;;;;3.42;2.97;;;19.20;64.70;;;;;;4977166;28;20050;-30
2023/10/27 02:11:02;;;;;;;3.38;2.63;;;19.10;65.60;;;;;;4992831;28;20407;-30
2023/10/27 02:13:29;;;;;;;3.65;3.10;;;18.80;67.50;;;;;;4993030;28;20054;-30
2023/10/27 02:15:57;;;;;;;3.00;2.70;;;19.20;81.50;;;;;;4992879;28;20081;-30
2023/10/27 02:18:25;;;;;;;2.97;2.67;;;;;;;;;;4992988;28;20086;-29
2023/10/27 02:20:51;;;;;;;3.08;2.72;;;19.40;81.50;;;;;;4991434;28;20459;-30
2023/10/27 02:23:19;;;;;;;3.72;2.85;;;;;;;;;;4992775;28;20182;-30
2023/10/27 02:25:46;;;;;;;3.20;2.78;;;;;;;;;;4992660;28;20058;-30
2023/10/27 02:28:13;;;;;;;3.17;2.63;;;;;;;;;;4992852;28;20050;-30
2023/10/27 02:30:40;;;;;;;3.15;2.85;;;19.60;82.00;;;;;;4991482;28;20054;-30
2023/10/27 02:33:08;;;;;;;2.95;2.50;;;18.90;62.50;;;;;;4992805;28;20082;-29
2023/10/27 02:35:35;;;;;;;2.83;2.53;;;;;;;;;;4991613;28;20125;-29
2023/10/27 02:38:04;;;;;;;3.72;2.75;;;19.70;82.10;;;;;;4972280;28;20124;-29
2023/10/27 02:40:30;;;;;;;2.92;2.63;;;18.80;82.20;;;;;;4972613;28;20113;-30
2023/10/27 02:42:57;;;;;;;3.17;2.88;;;;;;;;;;4973253;28;20105;-30
2023/10/27 02:45:24;;;;;;;2.70;2.40;;;18.70;81.30;;;;;;4973368;28;20121;-30
2023/10/27 02:47:51;;;;;;;2.75;2.40;;;;;;;;;;4973174;28;20498;-29
2023/10/27 02:50:19;;;;;;;3.60;2.80;;;19.30;81.70;;;;;;4972687;28;20047;-30
2023/10/27 02:52:47;;;;;;;2.70;2.50;;;;;;;;;;4973028;28;20055;-30
2023/10/27 02:55:14;;;;;;;3.22;2.42;;;;;;;;;;4972975;28;20051;-29
2023/10/27 02:57:40;;;;;;;2.53;2.33;;;19.30;81.60;;;;;;4973007;28;20089;-30
2023/10/27 03:00:08;;;;;;;3.55;2.30;;;18.70;81.80;;;;;;4972689;28;20102;-30
2023/10/27 03:02:35;;;;;;;3.28;2.45;;;18.50;81.70;;;;;;4972874;28;20118;-28
2023/10/27 03:05:02;;;;;;;2.50;2.05;;;;;;;;;;4973008;28;20121;-28
2023/10/27 03:07:30;;;;;;;2.83;2.40;;;19.90;67.20;;;;;;4973107;28;20102;-28
2023/10/27 03:09:57;;;;;;;2.72;2.40;;;;;;;;;;4987483;28;20492;-26
2023/10/27 03:12:24;;;;;;;2.75;2.35;;;19.00;64.60;;;;;;4991909;28;20054;-28
2023/10/27 03:14:51;;;;;;;2.80;2.50;;;18.40;81.30;;;;;;4992176;28;20081;-28
2023/10/27 03:17:17;;;;;;;2.88;2.38;;;19.50;81.90;;;;;;4992356;28;20125;-28
2023/10/27 03:19:45;;;;;;;2.33;2.13;;;;;;;;;;4992077;28;20050;-28
2023/10/27 03:22:12;;;;;;;2.50;2.20;;;18.50;81.50;;;;;;4992259;28;20050;-28
2023/10/27 03:24:40;;;;;;;2.75;2.38;;;18.40;62.50;;;;;;4992168;28;20081;-27
2023/10/27 03:27:07;;;;;;;2.60;2.30;;;;;;;;;;4991949;28;20132;-27
2023/10/27 03:29:34;;;;;;;2.47;2.20;;;;;;;;;;4992105;28;20419;-28
2023/10/27 03:32:01;;;;;;;2.40;2.20;;;18.70;65.30;;;;;;4989586;28;20089;-28
2023/10/27 03:34:28;;;;;;;2.75;2.50;;;19.00;82.50;;;;;;4972475;28;20062;-28
2023/10/27 03:36:54;;;;;;;2.78;2.47;;;18.00;81.20;;;;;;4972248;28;20043;-28
2023/10/27 03:39:21;;;;;;;2.70;2.20;;;18.60;74.00;;;;;;4972566;28;20133;-28
2023/10/27 03:41:49;;;;;;;2.47;2.28;;;18.30;81.30;;;;;;4972338;28;20101;-28
2023/10/27 03:44:16;;;;;;;2.50;2.30;;;19.00;81.70;;;;;;4972568;28;20121;-28
2023/10/27 03:46:43;;;;;;;3.00;2.50;;;17.80;81.40;;;;;;4972683;28;20091;-28
2023/10/27 03:49:09;;;;;;;3.10;2.20;;;18.30;73.90;;;;;;4972574;28;20082;-28
2023/10/27 03:51:36;;;;;;;2.65;2.30;;;19.80;82.10;;;;;;4975224;28;20109;-28
2023/10/27 03:54:03;;;;;;;2.20;2.00;;;18.30;81.80;;;;;;4976199;28;20058;-28
2023/10/27 03:56:31;;;;;;;2.30;2.10;;;18.90;68.70;;;;;;4976182;28;20140;-28
2023/10/27 03:58:59;;;;;;;3.30;2.28;;;18.80;82.00;;;;;;4976223;28;20046;-28
2023/10/27 04:01:27;;;;;;;2.53;2.33;;;18.60;82.40;;;;;;4975633;28;20079;-28
2023/10/27 04:03:54;;;;;;;2.58;2.20;;;19.00;81.60;;;;;;4975782;28;20567;-28
2023/10/27 04:06:21;;;;;;;2.42;2.20;;;18.10;81.70;;;;;;4976079;28;20051;-28
2023/10/27 04:08:48;;;;;;;3.25;2.28;;;18.90;64.80;;;;;;4981150;28;20089;-28
2023/10/27 04:11:15;;;;;;;2.83;2.50;;;19.00;82.00;;;;;;4994771;28;20086;-28
2023/10/27 04:13:42;;;;;;;2.80;2.50;;;;;;;;;;4994999;28;20085;-28
2023/10/27 04:16:10;;;;;;;2.15;1.95;;;18.00;81.20;;;;;;4995500;28;20050;-28
2023/10/27 04:18:37;;;;;;;2.63;2.17;;;19.10;81.90;;;;;;4995042;28;20522;-28
2023/10/27 04:21:04;;;;;;;2.50;2.30;;;17.60;81.10;;;;;;4994587;28;20466;-28
2023/10/27 04:23:31;;;;;;;2.40;2.20;;;18.80;81.70;;;;;;4994739;28;20562;-28
2023/10/27 04:25:58;;;;;;;2.78;2.22;;;18.80;81.80;;;;;;4994967;28;20149;-28
2023/10/27 04:28:25;;;;;;;2.65;2.45;;;17.80;74.70;;;;;;4991170;28;20078;-28
2023/10/27 04:30:53;;;;;;;4.35;2.47;;;18.50;82.00;;;;;;4975409;28;20425;-28
2023/10/27 04:33:22;;;;;;;2.92;2.38;;;18.20;81.80;;;;;;4975307;28;20439;-28
2023/10/27 04:35:49;;;;;;;2.95;2.45;;;;;;;;;;4975433;28;20105;-28
2023/10/27 04:38:16;;;;;;;3.08;2.28;;;17.50;81.10;;;;;;4975461;28;20043;-28
2023/10/27 04:40:43;;;;;;;3.55;2.13;;;18.80;70.20;;;;;;4974998;28;20081;-28
2023/10/27 04:43:10;;;;;;;2.70;2.40;;;;;;;;;;4975185;28;20110;-28
2023/10/27 04:45:37;;;;;;;2.53;2.15;;;;;;;;;;4974862;28;20475;-27
2023/10/27 04:48:04;;;;;;;2.42;2.22;;;18.30;81.70;;;;;;4975176;28;20484;-28
2023/10/27 04:50:35;;;;;;;3.90;2.40;;;19.20;79.20;;;;;;4975013;28;20047;-28
2023/10/27 04:53:01;;;;;;;2.30;2.10;;;18.00;72.50;;;;;;4975112;28;20050;-28
2023/10/27 04:55:28;;;;;;;2.42;2.10;;;;;;;;;;4974621;28;20055;-28
2023/10/27 04:57:55;;;;;;;3.25;2.35;;;18.90;67.40;;;;;;4973885;28;20484;-28
2023/10/27 05:00:22;;;;;;;2.35;2.00;;;18.20;81.50;;;;;;4974766;28;20551;-28
2023/10/27 05:02:50;;;;;;;2.55;2.20;;;17.80;76.70;;;;;;4974254;28;20571;-28
2023/10/27 05:05:18;;;;;;;2.30;2.00;;;18.10;81.60;;;;;;4974731;28;20114;-28
2023/10/27 05:07:46;;;;;;;5.03;2.40;;;18.50;81.80;;;;;;4974563;28;20043;-28
2023/10/27 05:10:13;;;;;;;2.88;2.22;;;18.20;81.70;;;;;;4991398;28;20082;-28
2023/10/27 05:12:40;;;;;;;2.40;2.20;;;19.20;67.10;;;;;;4994130;28;20058;-28
2023/10/27 05:15:07;;;;;;;2.75;2.25;;;18.50;81.80;;;;;;4994071;28;20050;-28
2023/10/27 05:17:35;;;;;;;2.75;2.35;;;;;;;;;;4994100;28;20455;-28
2023/10/27 05:20:03;;;;;;;2.40;2.10;;;;;;;;;;4994161;28;20051;-27
2023/10/27 05:22:30;;;;;;;2.50;2.28;;;;;;;;;;4993700;28;20050;-27
2023/10/27 05:25:01;;;;;;;2.53;2.22;;;18.00;82.00;;;;;;4988164;28;20097;-28
2023/10/27 05:27:27;;;;;;;2.55;2.35;;;18.30;81.90;;;;;;4974509;28;20043;-28
2023/10/27 05:29:54;;;;;;;2.38;2.17;;;;;;;;;;4974297;28;20086;-28
2023/10/27 05:32:21;;;;;;;2.63;2.17;;;19.30;82.70;;;;;;4974475;28;20050;-28
2023/10/27 05:34:48;;;;;;;3.38;2.45;;;;;;;;;;4974139;28;20047;-26
2023/10/27 05:37:15;;;;;;;2.40;2.15;;;;;;;;;;4973707;28;20078;-27
2023/10/27 05:39:42;;;;;;;2.45;2.25;;;;;;;;;;4973849;28;20105;-27
2023/10/27 05:42:11;;;;;;;2.22;2.03;;;17.30;81.70;;;;;;4974027;28;20101;-28
2023/10/27 05:44:39;;;;;;;2.35;2.10;;;19.00;82.50;;;;;;4973930;28;20408;-28
2023/10/27 05:47:06;;;;;;;2.50;2.30;;;18.10;82.20;;;;;;4974124;28;20586;-28
2023/10/27 05:49:33;;;;;;;2.92;2.17;;;19.50;79.40;;;;;;4993445;28;20070;-27
2023/10/27 05:52:02;;;;;;;2.80;2.40;;;18.00;81.60;;;;;;4993123;28;20078;-28
2023/10/27 05:54:29;;;;;;;2.92;2.45;;;18.70;82.00;;;;;;4993365;28;20085;-28
2023/10/27 05:56:56;;;;;;;3.05;2.40;;;17.80;82.00;;;;;;4993248;28;20058;-28
2023/10/27 05:59:24;;;;;;;3.15;2.55;;;18.40;62.80;;;;;;4993266;28;20096;-27
2023/10/27 06:01:54;;;;;;;2.50;2.25;;;;;;;;;;4993222;28;20054;-27
2023/10/27 06:04:20;;;;;;;3.00;2.25;;;18.20;81.90;;;;;;4993030;28;20042;-28
2023/10/27 06:06:48;;;;;;;2.50;2.17;;;;;;;;;;4992369;28;20566;-27
2023/10/27 06:09:15;;;;;;;2.53;2.30;;;;;;;;;;4982243;28;20440;-28
2023/10/27 06:11:42;;;;;;;2.60;2.40;;;18.20;71.80;;;;;;4992672;28;20054;-28
2023/10/27 06:14:09;;;;;;;2.25;1.95;;;18.70;81.90;;;;;;4992715;28;20046;-28
2023/10/27 06:16:37;;;;;;;2.60;2.20;;;18.40;62.80;;;;;;4992862;28;20046;-28
2023/10/27 06:19:04;;;;;;;3.85;2.22;;;18.20;69.50;;;;;;4993049;28;20089;-28
2023/10/27 06:21:31;;;;;;;2.47;2.20;;;18.30;82.20;;;;;;4984211;28;20057;-28
2023/10/27 06:23:58;;;;;;;2.58;2.10;;;19.10;71.40;;;;;;4973271;28;20059;-27
2023/10/27 06:26:25;;;;;;;2.45;2.25;;;;;;;;;;4973477;28;20085;-28
2023/10/27 06:28:53;;;;;;;2.33;2.10;;;;;;;;;;4973362;28;20117;-27
2023/10/27 06:31:20;;;;;;;2.40;2.15;;;;;;;;;;4972852;28;20484;-27
2023/10/27 06:33:48;;;;;;;2.60;2.40;;;18.60;62.70;;;;;;4973341;28;20046;-28
2023/10/27 06:36:15;;;;;;;2.95;2.30;;;;;;;;;;4972887;28;20124;-28
2023/10/27 06:38:42;;;;;;;2.53;2.28;;;18.80;70.50;;;;;;4973097;28;20102;-28
2023/10/27 06:41:09;;;;;;;2.50;2.30;;;19.60;82.50;;;;;;4973063;28;20078;-29
2023/10/27 06:43:36;;;;;;;2.40;2.10;;;;;;;;;;4973930;28;20105;-28
2023/10/27 06:46:03;;;;;;;2.70;2.45;;;19.10;81.90;;;;;;4973042;28;20051;-29
2023/10/27 06:48:30;;;;;;;2.40;2.20;;;17.50;81.20;;;;;;4973406;28;20042;-29
2023/10/27 06:50:58;;;;;;;2.50;2.30;;;18.40;68.10;;;;;;4973112;28;20055;-29
2023/10/27 06:53:25;;;;;;;2.70;2.35;;;;;;;;;;4973077;28;20086;-29
2023/10/27 06:55:52;;;;;;;2.72;2.50;;;18.00;81.70;;;;;;4972700;28;20496;-29
2023/10/27 06:58:19;;;;;;;2.38;2.17;;;19.40;69.90;;;;;;4973008;28;20051;-28
2023/10/27 07:00:46;;;;;;;2.50;2.20;;;;;;;;;;4973038;28;20109;-30
2023/10/27 07:03:13;;;;;;;2.80;2.30;;;;;;;;;;4972835;28;20483;-27
2023/10/27 07:05:40;;;;;;;2.78;2.30;;;18.70;81.90;;;;;;4973042;28;20050;-29
2023/10/27 07:08:09;;;;;;;2.10;1.90;;;19.30;81.90;;;;;;4972323;28;20090;-29
2023/10/27 07:10:36;;;;;;;2.83;2.33;;;18.80;81.50;;;;;;4972807;28;20062;-29
2023/10/27 07:13:03;;;;;;;2.38;1.92;;;18.90;81.50;;;;;;4972815;28;20061;-29
2023/10/27 07:15:30;;;;;;;3.55;2.22;;;;;;;;;;4972918;28;20097;-29
2023/10/27 07:17:57;;;;;;;2.30;2.10;;;19.10;81.70;;;;;;4972828;28;20459;-30
2023/10/27 07:20:23;;;;;;;2.88;2.30;;;18.10;69.50;;;;;;4972747;28;20047;-29
2023/10/27 07:22:50;;;;;;;2.78;2.03;;;19.10;81.10;;;;;;4973079;28;20047;-29
2023/10/27 07:25:18;;;;;;;3.58;2.20;;;18.50;80.70;;;;;;4973606;28;20051;-29
2023/10/27 07:27:46;;;;;;;2.45;2.05;;;;;;;;;;4976430;28;20273;-29
2023/10/27 07:30:13;;;;;;;2.38;2.00;;;19.20;80.80;;;;;;4976194;28;20109;-29
2023/10/27 07:32:40;;;;;;;2.05;1.80;;;19.80;77.30;;;;;;4976650;28;20054;-29
2023/10/27 07:35:08;;;;;;;4.20;2.05;;;18.60;80.30;;;;;;4976316;28;20047;-29
2023/10/27 07:37:34;;;;;;;2.33;1.90;;;20.00;81.20;;;;;;4975933;28;20496;-29
2023/10/27 07:40:03;;;;;;;2.08;1.88;;;19.50;80.50;;;;;;4976437;28;20101;-29
2023/10/27 07:42:32;;;;;;;2.38;2.00;;;18.20;61.00;;;;;;4976581;28;20098;-29
2023/10/27 07:44:58;;;;;;;2.42;2.10;;;19.70;77.20;;;;;;4976120;28;20043;-29
2023/10/27 07:47:25;;;;;;;3.15;1.80;;;19.50;80.20;;;;;;4976314;28;20086;-29
2023/10/27 07:49:53;;;;;;;3.70;2.10;;;20.10;61.60;;;;;;4974865;28;20051;-28
2023/10/27 07:52:20;;;;;;;2.47;1.90;;;20.30;80.40;;;;;;4975325;28;20078;-29
2023/10/27 07:54:47;;;;;;;3.00;2.00;;;19.30;70.50;;;;;;4975396;28;20408;-29
2023/10/27 07:57:14;;;;;;;2.25;1.80;;;;;;;;;;4975641;28;20114;-27
2023/10/27 07:59:42;;;;;;;2.25;1.92;;;20.10;67.40;;;;;;4975438;28;20050;-27
2023/10/27 08:02:09;;;;;;;2.45;1.90;;;20.40;71.40;;;;;;4975290;28;20047;-26
2023/10/27 08:04:37;;;;;;;3.15;1.90;;;20.30;72.40;;;;;;4975635;28;20069;-26
2023/10/27 08:07:04;;;;;;;3.55;1.98;;;19.90;79.30;;;;;;4975801;28;20054;-26
2023/10/27 08:09:31;;;;;;;2.92;1.90;;;;;;;;;;4987280;28;20047;-28
2023/10/27 08:11:58;;;;;;;2.90;1.90;;;21.30;79.80;;;;;;4994964;28;20554;-27
2023/10/27 08:14:25;;;;;;;4.10;1.88;;;;;;;;;;4983579;28;20423;-27
2023/10/27 08:16:54;;;;;;;3.35;1.85;;;20.70;79.70;;;;;;4975933;28;20496;-26
2023/10/27 08:19:20;;;;;;;2.47;1.80;;;20.50;79.60;;;;;;4975844;28;20054;-28
2023/10/27 08:21:48;;;;;;;3.63;2.10;;;;;;;;;;4975163;28;20051;-27
2023/10/27 08:24:16;;;;;;;2.03;1.70;;;;;;;;;;4976024;28;20047;-27
2023/10/27 08:26:44;;;;;;;2.10;1.90;;;20.40;71.20;;;;;;4975511;28;20085;-30
2023/10/27 08:29:11;;;;;;;2.20;2.00;;;20.90;79.30;;;;;;4975541;28;20511;-30
2023/10/27 08:31:38;;;;;;;2.55;1.90;;;;;;;;;;4974699;28;20101;-30
2023/10/27 08:34:10;;;;;;;2.35;1.80;;;20.80;79.70;;;;;;4974556;28;20475;-30
2023/10/27 08:36:38;;;;;;;1.88;1.60;;;;;;;;;;4974717;28;20126;-30
2023/10/27 08:39:05;;;;;;;2.72;1.70;;;20.60;66.90;;;;;;4975081;28;20047;-29
2023/10/27 08:41:31;;;;;;;1.90;1.70;;;20.90;78.60;;;;;;4975038;28;20051;-29
2023/10/27 08:43:58;;;;;;;2.55;1.88;;;21.30;70.10;;;;;;4974766;28;20492;-29
2023/10/27 08:46:25;;;;;;;2.13;1.88;;;21.00;79.10;;;;;;4973984;28;20484;-29
2023/10/27 08:48:53;;;;;;;2.70;1.80;;;20.90;71.90;;;;;;4974886;28;20074;-29
2023/10/27 08:51:21;;;;;;;2.13;1.77;;;20.70;78.90;;;;;;4974917;28;20097;-29
2023/10/27 08:53:48;;;;;;;2.10;1.80;;;20.50;78.50;;;;;;4974832;28;20051;-29
2023/10/27 08:56:15;;;;;;;2.67;1.90;;;20.50;66.80;;;;;;4972175;28;20074;-29
2023/10/27 08:58:47;;;;;;;2.35;1.70;;;21.60;79.80;;;;;;4974426;28;20078;-29
2023/10/27 09:01:14;;;;;;;1.98;1.77;;;21.00;79.00;;;;;;4974573;28;20121;-29
2023/10/27 09:03:41;;;;;;;1.92;1.73;;;21.10;75.70;;;;;;4974609;28;20053;-29
2023/10/27 09:06:08;;;;;;;2.70;1.92;;;21.00;78.50;;;;;;4974676;28;20055;-29
2023/10/27 09:08:36;;;;;;;2.13;1.83;;;21.00;60.50;;;;;;4974560;28;20458;-30
2023/10/27 09:11:03;;;;;;;2.95;1.67;;;;;;;;;;4974195;28;20106;-30
2023/10/27 09:13:30;;;;;;;1.83;1.63;;;21.40;74.60;;;;;;4973879;28;20571;-29
2023/10/27 09:15:56;;;;;;;2.33;1.83;;;21.60;78.70;;;;;;4973870;28;20082;-29
2023/10/27 09:18:35;;;;;;;3.20;1.88;;;20.80;71.70;;;;;;4974520;28;20105;-29
2023/10/27 09:21:02;;;;;;;2.10;1.88;;;21.00;78.40;;;;;;4972238;28;20530;-29
2023/10/27 09:23:30;;;;;;;2.33;1.80;;;;;;;;;;4973990;28;20531;-30
2023/10/27 09:25:59;;;;;;;1.77;1.65;;;21.10;65.90;;;;;;4971981;28;20076;-29
2023/10/27 09:28:28;;;;;;;2.38;1.80;;;20.90;76.20;;;;;;4974013;28;20047;-29
2023/10/27 09:30:54;;;;;;;2.20;1.90;;;21.20;78.50;;;;;;4971424;28;20057;-29
2023/10/27 09:33:23;;;;;;;2.40;1.80;;;21.00;60.50;;;;;;4974019;28;20078;-30
2023/10/27 09:35:51;;;;;;;2.00;1.80;;;21.00;60.50;;;;;;4973756;28;20054;-30
2023/10/27 09:38:18;;;;;;;2.35;2.00;;;20.80;67.80;;;;;;4974098;28;20082;-29
2023/10/27 09:40:45;;;;;;;2.53;1.90;;;20.90;78.40;;;;;;4973895;28;20063;-29
2023/10/27 09:43:18;;;;;;;2.20;2.00;;;20.80;69.40;;;;;;4971302;28;20175;-30
2023/10/27 09:45:49;;;;;;;2.20;1.92;;;20.80;79.10;;;;;;4972802;28;20515;-30
2023/10/27 09:48:16;;;;;;;2.80;2.30;;;20.90;67.20;;;;;;4973205;28;20051;-29
2023/10/27 09:50:43;;;;;;;1.90;1.70;;;;;;;;;;4992516;28;20050;-30
2023/10/27 09:53:10;;;;;;;2.20;2.00;;;;;;;;;;4992617;28;20089;-29
2023/10/27 09:55:37;;;;;;;2.55;1.95;;;21.90;78.40;;;;;;4992439;28;20419;-29
2023/10/27 09:58:04;;;;;;;2.10;1.90;;;;;;;;;;4992202;28;20756;-29
2023/10/27 10:00:32;;;;;;;2.30;2.08;;;20.90;60.50;;;;;;4992599;28;20082;-29
2023/10/27 10:02:59;;;;;;;2.38;2.10;;;20.80;60.50;;;;;;4992136;28;20054;-28
2023/10/27 10:05:27;;;;;;;2.28;2.03;;;;;;;;;;4992452;28;20101;-29
2023/10/27 10:07:55;;;;;;;2.63;2.20;;;;;;;;;;4972474;28;20051;-29
2023/10/27 10:10:29;;;;;;;2.70;2.13;;;20.70;78.90;;;;;;4990800;28;20046;-28
2023/10/27 10:13:09;;;;;;;2.50;2.07;;;21.00;75.80;;;;;;4991981;28;20499;-28
2023/10/27 10:15:38;;;;;;;3.40;2.20;;;20.30;66.80;;;;;;4991706;28;20054;-28
2023/10/27 10:18:05;;;;;;;2.58;2.05;;;20.80;60.70;;;;;;4992089;28;20081;-29
2023/10/27 10:20:57;;;;;;;2.20;1.98;;;21.90;79.60;;;;;;4992189;28;20117;-31
2023/10/27 10:23:25;;;;;;;2.25;2.05;;;20.60;79.50;;;;;;4991745;28;20472;-31
2023/10/27 10:25:52;;;;;;;2.95;2.40;;;20.60;78.80;;;;;;4992078;28;20046;-31
2023/10/27 10:28:26;;;;;;;2.65;2.20;;;20.70;60.90;;;;;;4992059;28;20197;-29
2023/10/27 10:31:25;;;;;;;2.65;2.17;;;21.10;72.40;;;;;;4991774;28;20047;-31
2023/10/27 10:34:07;;;;;;;2.35;2.15;;;20.40;79.00;;;;;;4991954;28;20134;-28
2023/10/27 10:36:34;;;;;;;2.50;2.30;;;19.80;79.10;;;;;;4985486;28;20071;-28
2023/10/27 10:39:03;;;;;;;2.42;2.22;;;20.90;68.80;;;;;;4972263;28;20086;-29
2023/10/27 10:42:03;;;;;;;4.13;2.42;;;20.60;61.20;;;;;;4972218;28;20817;-29
2023/10/27 10:44:31;;;;;;;2.63;2.40;;;20.40;79.20;;;;;;4103596;28;10000969;-30
2023/10/27 10:47:04;;;;;;;4.93;2.30;;;21.20;80.20;;;;;;4972169;28;20046;-30
2023/10/27 10:49:32;;;;;;;2.42;2.22;;;;;;;;;;4972109;28;20134;-30
2023/10/27 10:51:59;;;;;;;2.60;2.40;;;20.10;79.30;;;;;;4971956;28;20051;-30
2023/10/27 10:54:27;;;;;;;2.97;2.22;;;20.20;79.60;;;;;;4972351;28;20058;-30
2023/10/27 10:57:02;;;;;;;2.65;2.20;;;21.60;77.20;;;;;;4971983;28;20055;-30
2023/10/27 10:59:29;;;;;;;3.33;2.38;;;19.30;78.90;;;;;;4971212;28;20691;-30
2023/10/27 11:01:56;;;;;;;2.50;2.25;;;;;;;;;;4971578;28;20105;-30
2023/10/27 11:04:30;;;;;;;2.60;2.40;;;19.90;80.20;;;;;;4972122;28;20053;-30
2023/10/27 11:07:01;;;;;;;2.53;2.30;;;20.30;61.50;;;;;;4972344;28;20459;-30
2023/10/27 11:09:29;;;;;;;2.63;2.35;;;;;;;;;;4983026;28;20065;-29
2023/10/27 11:11:55;;;;;;;3.17;2.50;;;20.20;80.10;;;;;;4991185;28;20136;-29
2023/10/27 11:14:23;;;;;;;2.75;2.30;;;;;;;;;;4991187;28;20054;-29
2023/10/27 11:16:57;;;;;;;4.70;2.30;;;19.70;80.10;;;;;;4991231;28;20480;-28
2023/10/27 11:19:24;;;;;;;2.50;2.30;;;;;;;;;;4988452;28;20491;-29
2023/10/27 11:21:55;;;;;;;2.75;2.45;;;19.60;67.40;;;;;;4970608;28;20136;-29
2023/10/27 11:24:23;;;;;;;3.92;2.60;;;20.30;61.70;;;;;;4971843;28;20054;-29
2023/10/27 11:26:50;;;;;;;2.85;2.47;;;;;;;;;;4971977;28;20058;-29
2023/10/27 11:29:17;;;;;;;3.20;2.30;;;;;;;;;;4971671;28;20089;-31
2023/10/27 11:31:45;;;;;;;2.70;2.40;;;20.00;80.40;;;;;;4971264;28;20553;-28
2023/10/27 11:34:12;;;;;;;3.50;2.80;;;20.40;79.90;;;;;;4970953;28;20162;-29
2023/10/27 11:36:42;;;;;;;3.38;2.53;;;20.30;64.10;;;;;;4971375;28;20047;-29
2023/10/27 11:39:17;;;;;;;7.05;2.50;;;20.40;61.80;;;;;;4972114;28;20463;-29
2023/10/27 11:41:45;;;;;;;4.00;2.40;;;20.40;61.80;;;;;;4971673;28;20460;-29
2023/10/27 11:44:12;;;;;;;2.42;2.22;;;20.20;80.00;;;;;;4972050;28;20082;-29
2023/10/27 11:46:39;;;;;;;2.53;2.33;;;;;;;;;;4971536;28;20086;-29
2023/10/27 11:49:06;;;;;;;2.72;2.33;;;20.40;71.00;;;;;;4971218;28;20465;-29
2023/10/27 11:51:33;;;;;;;2.58;2.38;;;;;;;;;;4984506;28;20078;-29
2023/10/27 11:54:00;;;;;;;3.13;2.72;;;20.50;61.80;;;;;;4985227;28;20098;-29
2023/10/27 11:56:27;;;;;;;3.63;2.50;;;20.80;80.90;;;;;;4971579;28;20078;-29
2023/10/27 11:58:54;;;;;;;3.05;2.55;;;;;;;;;;4971749;28;20055;-29
2023/10/27 12:01:21;;;;;;;2.72;2.38;;;20.90;80.90;;;;;;4971227;28;20078;-29
2023/10/27 12:03:48;;;;;;;2.55;2.33;;;;;;;;;;4971148;28;20055;-31
2023/10/27 12:06:15;;;;;;;3.25;2.58;;;20.20;73.70;;;;;;4973512;28;20046;-29
2023/10/27 12:08:42;;;;;;;3.22;2.50;;;20.90;80.00;;;;;;4973839;28;20073;-29
2023/10/27 12:11:09;;;;;;;7.00;2.67;;;;;;;;;;4991388;28;20136;-29
2023/10/27 12:13:37;;;;;;;3.22;2.70;;;20.40;61.70;;;;;;4994218;28;20148;-29
2023/10/27 12:16:04;;;;;;;5.07;2.60;;;;;;;;;;4987792;28;20046;-29
2023/10/27 12:18:32;;;;;;;2.60;2.40;;;;;;;;;;4973928;28;20534;-29
2023/10/27 12:21:00;;;;;;;3.17;2.45;;;20.40;80.20;;;;;;4974382;28;20057;-29
2023/10/27 12:23:29;;;;;;;2.78;2.40;;;21.10;66.90;;;;;;4974535;28;20412;-30
2023/10/27 12:25:57;;;;;;;3.38;2.60;;;;;;;;;;4974825;28;20078;-30
2023/10/27 12:28:23;;;;;;;3.08;2.40;;;21.30;80.60;;;;;;4974818;28;20047;-29
2023/10/27 12:30:52;;;;;;;3.38;2.80;;;20.50;61.80;;;;;;4974048;28;20125;-29
2023/10/27 12:33:19;;;;;;;3.47;2.60;;;;;;;;;;4974661;28;20074;-29
2023/10/27 12:35:48;;;;;;;2.53;2.33;;;20.90;62.90;;;;;;4974441;28;20051;-29
2023/10/27 12:38:16;;;;;;;2.70;2.30;;;20.90;78.10;;;;;;4973791;28;20061;-29
2023/10/27 12:40:44;;;;;;;2.80;2.20;;;20.30;70.10;;;;;;4974074;28;20062;-30
2023/10/27 12:43:11;;;;;;;3.38;2.30;;;21.20;80.70;;;;;;4974410;28;20097;-29
2023/10/27 12:45:38;;;;;;;2.22;2.03;;;;;;;;;;4987438;28;20053;-29
2023/10/27 12:48:07;;;;;;;2.60;2.10;;;20.90;61.60;;;;;;4993676;28;20058;-30
2023/10/27 12:50:35;;;;;;;5.10;2.50;;;;;;;;;;4988728;28;20404;-30
2023/10/27 12:53:02;;;;;;;2.30;2.10;;;20.60;78.00;;;;;;4973760;28;20081;-30
2023/10/27 12:55:30;;;;;;;2.60;2.20;;;;;;;;;;4973841;28;20073;-30
2023/10/27 12:57:58;;;;;;;2.30;2.10;;;;;;;;;;4973352;28;20050;-30
2023/10/27 13:00:27;;;;;;;2.72;2.30;;;21.20;78.90;;;;;;4973855;28;20125;-30
2023/10/27 13:02:55;;;;;;;2.65;2.17;;;;;;;;;;4972750;28;20050;-30
2023/10/27 13:05:23;;;;;;;2.20;2.00;;;21.30;60.90;;;;;;4973926;28;20416;-30
2023/10/27 13:07:50;;;;;;;2.25;2.00;;;21.50;74.00;;;;;;4971193;28;20047;-28
2023/10/27 13:10:17;;;;;;;2.38;2.10;;;21.30;60.70;;;;;;4975773;28;20051;-29
2023/10/27 13:12:44;;;;;;;2.58;2.00;;;22.50;64.10;;;;;;4973789;28;20055;-29
2023/10/27 13:15:12;;;;;;;2.95;2.00;;;21.40;78.20;;;;;;4973697;28;20484;-30
2023/10/27 13:17:39;;;;;;;3.20;2.30;;;;;;;;;;4973249;28;20058;-30